createdAt,value
2017-08-08T00:00:24.184Z,0
2017-08-08T00:01:33.401Z,0
2017-08-08T00:02:44.272Z,0
2017-08-08T00:03:53.297Z,0
2017-08-08T00:05:02.253Z,0
2017-08-08T00:06:11.480Z,0
2017-08-08T00:07:20.666Z,0
2017-08-08T00:08:30.061Z,0
2017-08-08T00:09:39.351Z,0
2017-08-08T00:10:48.600Z,0
2017-08-08T00:11:57.673Z,0
2017-08-08T00:13:06.690Z,0
2017-08-08T00:14:15.957Z,0
2017-08-08T00:15:25.002Z,0
2017-08-08T00:16:34.097Z,0
2017-08-08T00:17:43.189Z,0
2017-08-08T00:18:52.229Z,0
2017-08-08T00:20:01.188Z,0
2017-08-08T00:21:10.874Z,0
2017-08-08T00:22:19.833Z,0
2017-08-08T00:23:28.810Z,0
2017-08-08T00:24:38.014Z,0
2017-08-08T00:25:47.177Z,0
2017-08-08T00:26:56.213Z,0
2017-08-08T00:28:05.418Z,0
2017-08-08T00:29:14.665Z,0
2017-08-08T00:30:23.720Z,0
2017-08-08T00:31:32.897Z,0
2017-08-08T00:32:41.853Z,0
2017-08-08T00:33:50.817Z,0
2017-08-08T00:35:00.482Z,0
2017-08-08T00:36:09.595Z,0
2017-08-08T00:37:18.556Z,0
2017-08-08T00:38:27.668Z,0
2017-08-08T00:39:36.640Z,0
2017-08-08T00:40:45.843Z,0
2017-08-08T00:41:54.798Z,0
2017-08-08T00:43:03.976Z,0
2017-08-08T00:44:12.957Z,0
2017-08-08T00:45:22.138Z,0
2017-08-08T00:46:31.189Z,0
2017-08-08T00:47:40.273Z,0
2017-08-08T00:48:49.303Z,0
2017-08-08T00:49:58.371Z,0
2017-08-08T00:51:07.728Z,0
2017-08-08T00:52:16.734Z,0
2017-08-08T00:53:25.880Z,0
2017-08-08T00:54:35.165Z,0
2017-08-08T00:55:44.124Z,0
2017-08-08T00:56:53.088Z,0
2017-08-08T00:58:02.048Z,0
2017-08-08T00:59:11.000Z,0
2017-08-08T01:00:19.958Z,0
2017-08-08T01:01:28.916Z,0
2017-08-08T01:02:37.877Z,0
2017-08-08T01:03:46.832Z,0
2017-08-08T01:04:55.797Z,0
2017-08-08T01:06:04.754Z,0
2017-08-08T01:07:13.718Z,0
2017-08-08T01:08:22.674Z,0
2017-08-08T01:09:31.627Z,0
2017-08-08T01:10:40.580Z,0
2017-08-08T01:11:49.537Z,0
2017-08-08T01:12:58.496Z,0
2017-08-08T01:14:07.468Z,0
2017-08-08T01:15:16.424Z,0
2017-08-08T01:16:25.384Z,0
2017-08-08T01:17:34.354Z,0
2017-08-08T01:18:43.301Z,0
2017-08-08T01:19:52.269Z,0
2017-08-08T01:21:01.233Z,0
2017-08-08T01:22:10.199Z,0
2017-08-08T01:23:19.159Z,0
2017-08-08T01:24:28.125Z,0
2017-08-08T01:25:37.081Z,0
2017-08-08T01:26:46.046Z,0
2017-08-08T01:27:54.999Z,0
2017-08-08T01:29:03.954Z,0
2017-08-08T01:30:12.914Z,0
2017-08-08T01:31:21.880Z,0
2017-08-08T01:32:30.836Z,0
2017-08-08T01:33:39.793Z,0
2017-08-08T01:34:48.754Z,0
2017-08-08T01:35:57.714Z,0
2017-08-08T01:37:06.677Z,0
2017-08-08T01:38:15.636Z,0
2017-08-08T01:39:24.935Z,0
2017-08-08T01:40:33.903Z,0
2017-08-08T01:41:42.866Z,0
2017-08-08T01:42:51.822Z,0
2017-08-08T01:44:00.790Z,0
2017-08-08T01:45:09.763Z,0
2017-08-08T01:46:18.715Z,0
2017-08-08T01:47:27.675Z,0
2017-08-08T01:48:36.627Z,0
2017-08-08T01:49:45.589Z,0
2017-08-08T01:50:54.554Z,0
2017-08-08T01:52:03.526Z,0
2017-08-08T01:53:12.495Z,0
2017-08-08T01:54:21.449Z,0
2017-08-08T01:55:30.726Z,0
2017-08-08T01:56:39.690Z,0
2017-08-08T01:57:48.673Z,0
2017-08-08T01:58:57.628Z,0
2017-08-08T02:00:06.584Z,0
2017-08-08T02:01:15.560Z,0
2017-08-08T02:02:24.852Z,0
2017-08-08T02:03:33.810Z,0
2017-08-08T02:04:42.779Z,0
2017-08-08T02:05:51.747Z,0
2017-08-08T02:07:00.711Z,0
2017-08-08T02:08:09.670Z,0
2017-08-08T02:09:18.641Z,0
2017-08-08T02:10:27.611Z,0
2017-08-08T02:11:36.572Z,0
2017-08-08T02:12:45.529Z,0
2017-08-08T02:13:54.491Z,0
2017-08-08T02:15:03.458Z,0
2017-08-08T02:16:12.768Z,0
2017-08-08T02:17:21.730Z,0
2017-08-08T02:18:30.734Z,0
2017-08-08T02:19:39.791Z,0
2017-08-08T02:20:48.747Z,0
2017-08-08T02:21:57.694Z,0
2017-08-08T02:23:06.654Z,0
2017-08-08T02:24:15.618Z,0
2017-08-08T02:25:24.577Z,0
2017-08-08T02:26:33.871Z,0
2017-08-08T02:27:42.830Z,0
2017-08-08T02:28:51.780Z,0
2017-08-08T02:30:00.742Z,0
2017-08-08T02:31:09.703Z,0
2017-08-08T02:32:18.671Z,0
2017-08-08T02:33:27.630Z,0
2017-08-08T02:34:36.592Z,0
2017-08-08T02:35:45.556Z,0
2017-08-08T02:36:54.500Z,0
2017-08-08T02:38:03.457Z,0
2017-08-08T02:39:12.419Z,0
2017-08-08T02:40:21.395Z,0
2017-08-08T02:41:30.358Z,0
2017-08-08T02:42:39.327Z,0
2017-08-08T02:43:48.287Z,0
2017-08-08T02:44:57.254Z,0
2017-08-08T02:46:06.543Z,0
2017-08-08T02:47:15.512Z,0
2017-08-08T02:48:24.474Z,0
2017-08-08T02:49:33.446Z,0
2017-08-08T02:50:42.421Z,0
2017-08-08T02:51:51.378Z,0
2017-08-08T02:53:00.334Z,0
2017-08-08T02:54:09.617Z,0
2017-08-08T02:55:18.575Z,0
2017-08-08T02:56:27.534Z,0
2017-08-08T02:57:36.490Z,0
2017-08-08T02:58:45.447Z,0
2017-08-08T02:59:54.405Z,0
2017-08-08T03:01:03.362Z,0
2017-08-08T03:02:12.332Z,0
2017-08-08T03:03:21.298Z,0
2017-08-08T03:04:30.286Z,0
2017-08-08T03:05:39.567Z,0
2017-08-08T03:06:48.527Z,0
2017-08-08T03:07:57.481Z,0
2017-08-08T03:09:06.435Z,0
2017-08-08T03:10:15.392Z,0
2017-08-08T03:11:24.345Z,0
2017-08-08T03:12:33.319Z,0
2017-08-08T03:13:42.288Z,4
2017-08-08T03:14:51.249Z,4
2017-08-08T03:16:00.518Z,0
2017-08-08T03:17:09.481Z,4
2017-08-08T03:18:18.436Z,4
2017-08-08T03:19:27.395Z,0
2017-08-08T03:20:36.360Z,4
2017-08-08T03:21:45.345Z,4
2017-08-08T03:22:54.301Z,4
2017-08-08T03:24:03.259Z,4
2017-08-08T03:25:12.219Z,4
2017-08-08T03:26:21.185Z,8
2017-08-08T03:27:30.146Z,8
2017-08-08T03:28:39.101Z,8
2017-08-08T03:29:48.074Z,8
2017-08-08T03:30:57.027Z,8
2017-08-08T03:32:05.987Z,12
2017-08-08T03:33:14.952Z,12
2017-08-08T03:34:24.234Z,16
2017-08-08T03:35:33.195Z,16
2017-08-08T03:36:42.157Z,20
2017-08-08T03:37:51.117Z,20
2017-08-08T03:39:00.111Z,24
2017-08-08T03:40:09.062Z,24
2017-08-08T03:41:18.023Z,24
2017-08-08T03:42:26.983Z,28
2017-08-08T03:43:35.948Z,28
2017-08-08T03:44:44.905Z,32
2017-08-08T03:45:53.859Z,32
2017-08-08T03:47:02.811Z,36
2017-08-08T03:48:11.768Z,36
2017-08-08T03:49:21.056Z,40
2017-08-08T03:50:30.013Z,40
2017-08-08T03:51:38.986Z,44
2017-08-08T03:52:47.939Z,44
2017-08-08T03:53:56.897Z,52
2017-08-08T03:55:05.858Z,52
2017-08-08T03:56:14.831Z,60
2017-08-08T03:57:24.117Z,60
2017-08-08T03:58:33.400Z,64
2017-08-08T03:59:42.367Z,68
2017-08-08T04:00:51.329Z,72
2017-08-08T04:02:00.279Z,80
2017-08-08T04:03:09.231Z,80
2017-08-08T04:04:18.189Z,84
2017-08-08T04:05:27.146Z,80
2017-08-08T04:06:36.112Z,84
2017-08-08T04:07:45.071Z,88
2017-08-08T04:08:54.032Z,88
2017-08-08T04:10:02.990Z,92
2017-08-08T04:11:11.952Z,100
2017-08-08T04:12:20.910Z,108
2017-08-08T04:13:29.873Z,120
2017-08-08T04:14:38.831Z,128
2017-08-08T04:15:47.787Z,136
2017-08-08T04:16:57.073Z,148
2017-08-08T04:18:06.031Z,156
2017-08-08T04:19:14.997Z,164
2017-08-08T04:20:24.285Z,176
2017-08-08T04:21:33.247Z,188
2017-08-08T04:22:42.203Z,188
2017-08-08T04:23:51.157Z,196
2017-08-08T04:25:00.124Z,204
2017-08-08T04:26:09.081Z,208
2017-08-08T04:27:18.046Z,220
2017-08-08T04:28:27.028Z,228
2017-08-08T04:29:35.988Z,236
2017-08-08T04:30:44.946Z,244
2017-08-08T04:31:53.914Z,260
2017-08-08T04:33:02.869Z,264
2017-08-08T04:34:11.818Z,252
2017-08-08T04:35:20.782Z,252
2017-08-08T04:36:29.742Z,256
2017-08-08T04:37:38.695Z,256
2017-08-08T04:38:47.650Z,256
2017-08-08T04:39:56.609Z,260
2017-08-08T04:41:05.564Z,260
2017-08-08T04:42:14.517Z,260
2017-08-08T04:43:23.468Z,264
2017-08-08T04:44:32.430Z,264
2017-08-08T04:45:41.383Z,268
2017-08-08T04:46:50.342Z,268
2017-08-08T04:47:59.292Z,276
2017-08-08T04:49:08.581Z,276
2017-08-08T04:50:17.544Z,284
2017-08-08T04:51:26.498Z,284
2017-08-08T04:52:35.452Z,288
2017-08-08T04:53:44.410Z,288
2017-08-08T04:54:53.380Z,300
2017-08-08T04:56:02.665Z,308
2017-08-08T04:57:11.622Z,312
2017-08-08T04:58:20.573Z,324
2017-08-08T04:59:29.525Z,324
2017-08-08T05:00:38.477Z,328
2017-08-08T05:01:47.438Z,340
2017-08-08T05:02:56.397Z,356
2017-08-08T05:04:05.351Z,372
2017-08-08T05:05:14.302Z,404
2017-08-08T05:06:23.257Z,424
2017-08-08T05:07:32.216Z,428
2017-08-08T05:08:41.169Z,440
2017-08-08T05:09:50.127Z,452
2017-08-08T05:10:59.088Z,472
2017-08-08T05:12:08.045Z,496
2017-08-08T05:13:17.004Z,516
2017-08-08T05:14:25.961Z,532
2017-08-08T05:15:34.927Z,552
2017-08-08T05:16:43.892Z,556
2017-08-08T05:17:52.886Z,552
2017-08-08T05:19:01.847Z,540
2017-08-08T05:20:10.820Z,544
2017-08-08T05:21:19.779Z,552
2017-08-08T05:22:28.729Z,540
2017-08-08T05:23:38.015Z,532
2017-08-08T05:24:46.970Z,524
2017-08-08T05:25:55.929Z,512
2017-08-08T05:27:04.891Z,504
2017-08-08T05:28:13.846Z,492
2017-08-08T05:29:22.818Z,480
2017-08-08T05:30:31.781Z,476
2017-08-08T05:31:41.061Z,472
2017-08-08T05:32:50.027Z,472
2017-08-08T05:33:58.979Z,492
2017-08-08T05:35:07.944Z,520
2017-08-08T05:36:17.233Z,548
2017-08-08T05:37:26.517Z,556
2017-08-08T05:38:35.797Z,576
2017-08-08T05:39:44.748Z,612
2017-08-08T05:40:53.703Z,616
2017-08-08T05:42:02.669Z,648
2017-08-08T05:43:11.623Z,668
2017-08-08T05:44:20.588Z,676
2017-08-08T05:45:29.547Z,692
2017-08-08T05:46:38.537Z,712
2017-08-08T05:47:47.495Z,724
2017-08-08T05:48:56.455Z,732
2017-08-08T05:50:05.408Z,740
2017-08-08T05:51:14.362Z,748
2017-08-08T05:52:23.323Z,752
2017-08-08T05:53:32.277Z,772
2017-08-08T05:54:41.228Z,776
2017-08-08T05:55:50.188Z,788
2017-08-08T05:56:59.147Z,820
2017-08-08T05:58:08.101Z,852
2017-08-08T05:59:17.061Z,892
2017-08-08T06:00:26.021Z,908
2017-08-08T06:01:34.980Z,920
2017-08-08T06:02:43.941Z,928
2017-08-08T06:03:52.901Z,968
2017-08-08T06:05:01.853Z,1004
2017-08-08T06:06:10.813Z,976
2017-08-08T06:07:19.798Z,920
2017-08-08T06:08:28.762Z,900
2017-08-08T06:09:37.719Z,908
2017-08-08T06:10:46.675Z,848
2017-08-08T06:11:55.624Z,836
2017-08-08T06:13:04.585Z,832
2017-08-08T06:14:13.892Z,836
2017-08-08T06:15:22.846Z,872
2017-08-08T06:16:31.807Z,872
2017-08-08T06:17:40.997Z,880
2017-08-08T06:18:49.949Z,868
2017-08-08T06:19:58.910Z,880
2017-08-08T06:21:08.392Z,908
2017-08-08T06:22:17.456Z,948
2017-08-08T06:23:26.411Z,972
2017-08-08T06:24:35.370Z,952
2017-08-08T06:25:44.359Z,924
2017-08-08T06:26:53.316Z,880
2017-08-08T06:28:02.606Z,944
2017-08-08T06:29:11.929Z,884
2017-08-08T06:30:20.909Z,888
2017-08-08T06:31:30.193Z,888
2017-08-08T06:32:39.148Z,932
2017-08-08T06:33:48.108Z,1004
2017-08-08T06:34:57.065Z,1012
2017-08-08T06:36:06.076Z,1008
2017-08-08T06:37:15.200Z,1000
2017-08-08T06:38:24.428Z,996
2017-08-08T06:39:33.402Z,992
2017-08-08T06:40:42.907Z,1004
2017-08-08T06:41:52.089Z,996
2017-08-08T06:43:01.048Z,1032
2017-08-08T06:44:10.209Z,1028
2017-08-08T06:45:19.627Z,1036
2017-08-08T06:46:28.589Z,1024
2017-08-08T06:47:37.746Z,1080
2017-08-08T06:48:46.704Z,1112
2017-08-08T06:49:55.897Z,1084
2017-08-08T06:51:04.950Z,1088
2017-08-08T06:52:13.906Z,1068
2017-08-08T06:53:22.960Z,1024
2017-08-08T06:54:32.476Z,1000
2017-08-08T06:55:41.714Z,1052
2017-08-08T06:56:50.987Z,1072
2017-08-08T06:58:00.106Z,1140
2017-08-08T06:59:09.058Z,1184
2017-08-08T07:00:18.027Z,1188
2017-08-08T07:01:26.986Z,1224
2017-08-08T07:02:36.058Z,1336
2017-08-08T07:03:45.278Z,1328
2017-08-08T07:04:54.328Z,1344
2017-08-08T07:06:03.315Z,1388
2017-08-08T07:07:12.514Z,1436
2017-08-08T07:08:21.735Z,1484
2017-08-08T07:09:30.690Z,1440
2017-08-08T07:10:39.790Z,1412
2017-08-08T07:11:48.823Z,1420
2017-08-08T07:12:57.915Z,1428
2017-08-08T07:14:06.962Z,1448
2017-08-08T07:15:15.918Z,1484
2017-08-08T07:16:24.974Z,1416
2017-08-08T07:17:34.018Z,1416
2017-08-08T07:18:42.980Z,1420
2017-08-08T07:19:52.286Z,1452
2017-08-08T07:21:01.460Z,1380
2017-08-08T07:22:10.420Z,1352
2017-08-08T07:23:19.514Z,1304
2017-08-08T07:24:28.477Z,1272
2017-08-08T07:25:37.444Z,1236
2017-08-08T07:26:46.457Z,1212
2017-08-08T07:27:55.426Z,1196
2017-08-08T07:29:04.471Z,1236
2017-08-08T07:30:13.756Z,1348
2017-08-08T07:31:23.026Z,1300
2017-08-08T07:32:32.171Z,1220
2017-08-08T07:33:41.227Z,1200
2017-08-08T07:34:50.193Z,1240
2017-08-08T07:35:59.544Z,1312
2017-08-08T07:37:08.591Z,1344
2017-08-08T07:38:17.653Z,1336
2017-08-08T07:39:26.617Z,1308
2017-08-08T07:40:35.927Z,1132
2017-08-08T07:41:45.362Z,1164
2017-08-08T07:42:54.380Z,1176
2017-08-08T07:44:03.412Z,1152
2017-08-08T07:45:12.693Z,1116
2017-08-08T07:46:21.725Z,1100
2017-08-08T07:47:30.686Z,1200
2017-08-08T07:48:39.689Z,1280
2017-08-08T07:49:48.684Z,1336
2017-08-08T07:50:57.693Z,1264
2017-08-08T07:52:06.655Z,1228
2017-08-08T07:53:15.624Z,1164
2017-08-08T07:54:24.621Z,1040
2017-08-08T07:55:33.734Z,1004
2017-08-08T07:56:42.790Z,1008
2017-08-08T07:57:51.938Z,1020
2017-08-08T07:59:00.901Z,1076
2017-08-08T08:00:09.860Z,1044
2017-08-08T08:01:18.942Z,988
2017-08-08T08:02:28.070Z,992
2017-08-08T08:03:37.176Z,1056
2017-08-08T08:04:46.187Z,1088
2017-08-08T08:05:55.332Z,1148
2017-08-08T08:07:04.393Z,1148
2017-08-08T08:08:13.471Z,1152
2017-08-08T08:09:22.551Z,1224
2017-08-08T08:10:31.559Z,1212
2017-08-08T08:11:40.669Z,1272
2017-08-08T08:12:49.707Z,1272
2017-08-08T08:13:58.827Z,1308
2017-08-08T08:15:07.834Z,1316
2017-08-08T08:16:16.834Z,1340
2017-08-08T08:17:25.821Z,1380
2017-08-08T08:18:34.846Z,1436
2017-08-08T08:19:43.813Z,1480
2017-08-08T08:20:52.858Z,1544
2017-08-08T08:22:01.817Z,1384
2017-08-08T08:23:10.916Z,1340
2017-08-08T08:24:19.878Z,1384
2017-08-08T08:25:28.992Z,1512
2017-08-08T08:26:37.992Z,1516
2017-08-08T08:27:47.035Z,1548
2017-08-08T08:28:56.118Z,1736
2017-08-08T08:30:05.134Z,2000
2017-08-08T08:31:14.596Z,1964
2017-08-08T08:32:24.035Z,1796
2017-08-08T08:33:33.097Z,1724
2017-08-08T08:34:42.155Z,1780
2017-08-08T08:35:51.236Z,1808
2017-08-08T08:37:00.357Z,1764
2017-08-08T08:38:09.433Z,1776
2017-08-08T08:39:18.516Z,1804
2017-08-08T08:40:27.570Z,1828
2017-08-08T08:41:36.646Z,1768
2017-08-08T08:42:45.684Z,1696
2017-08-08T08:43:54.979Z,1688
2017-08-08T08:45:04.020Z,1600
2017-08-08T08:46:12.979Z,1584
2017-08-08T08:47:22.109Z,1620
2017-08-08T08:48:31.103Z,2020
2017-08-08T08:49:40.203Z,1920
2017-08-08T08:50:49.573Z,1668
2017-08-08T08:51:58.613Z,1524
2017-08-08T08:53:07.631Z,1440
2017-08-08T08:54:16.969Z,1416
2017-08-08T08:55:26.158Z,1448
2017-08-08T08:56:35.160Z,1420
2017-08-08T08:57:44.234Z,1372
2017-08-08T08:58:53.297Z,1476
2017-08-08T09:00:02.349Z,1800
2017-08-08T09:01:11.371Z,2188
2017-08-08T09:02:20.438Z,2268
2017-08-08T09:03:29.521Z,2060
2017-08-08T09:04:38.594Z,1856
2017-08-08T09:05:47.574Z,1848
2017-08-08T09:06:56.575Z,1844
2017-08-08T09:08:05.539Z,1848
2017-08-08T09:09:14.506Z,2036
2017-08-08T09:10:23.465Z,1912
2017-08-08T09:11:32.750Z,2048
2017-08-08T09:12:41.708Z,1976
2017-08-08T09:13:50.662Z,2196
2017-08-08T09:14:59.617Z,2160
2017-08-08T09:16:08.576Z,1936
2017-08-08T09:17:17.535Z,1884
2017-08-08T09:18:26.867Z,1824
2017-08-08T09:19:36.746Z,1728
2017-08-08T09:20:45.891Z,1876
2017-08-08T09:21:54.987Z,2076
2017-08-08T09:23:04.369Z,1976
2017-08-08T09:24:13.332Z,1908
2017-08-08T09:25:22.316Z,1896
2017-08-08T09:26:31.283Z,1924
2017-08-08T09:27:40.267Z,1920
2017-08-08T09:28:49.231Z,2096
2017-08-08T09:29:58.187Z,2052
2017-08-08T09:31:07.192Z,2152
2017-08-08T09:32:16.234Z,1804
2017-08-08T09:33:25.222Z,1716
2017-08-08T09:34:34.187Z,1648
2017-08-08T09:35:43.250Z,1632
2017-08-08T09:36:52.208Z,1644
2017-08-08T09:38:01.228Z,1668
2017-08-08T09:39:10.349Z,1632
2017-08-08T09:40:19.300Z,1632
2017-08-08T09:41:28.322Z,1620
2017-08-08T09:42:37.308Z,1644
2017-08-08T09:43:46.274Z,1596
2017-08-08T09:44:55.289Z,1556
2017-08-08T09:46:04.767Z,1504
2017-08-08T09:47:13.858Z,1544
2017-08-08T09:48:22.883Z,1520
2017-08-08T09:49:31.875Z,1544
2017-08-08T09:50:40.838Z,1584
2017-08-08T09:51:50.184Z,1684
2017-08-08T09:52:59.247Z,1692
2017-08-08T09:54:08.316Z,1620
2017-08-08T09:55:17.304Z,1628
2017-08-08T09:56:26.266Z,1636
2017-08-08T09:57:35.224Z,1620
2017-08-08T09:58:44.193Z,1704
2017-08-08T09:59:53.150Z,1764
2017-08-08T10:01:02.117Z,1776
2017-08-08T10:02:11.075Z,1848
2017-08-08T10:03:20.124Z,1904
2017-08-08T10:04:29.090Z,1964
2017-08-08T10:05:38.205Z,1972
2017-08-08T10:06:47.167Z,2044
2017-08-08T10:07:56.132Z,2136
2017-08-08T10:09:05.098Z,2176
2017-08-08T10:10:14.094Z,2092
2017-08-08T10:11:23.051Z,2056
2017-08-08T10:12:32.017Z,2104
2017-08-08T10:13:41.299Z,2224
2017-08-08T10:14:50.261Z,2200
2017-08-08T10:15:59.219Z,2296
2017-08-08T10:17:08.182Z,2336
2017-08-08T10:18:17.160Z,2276
2017-08-08T10:19:26.126Z,2248
2017-08-08T10:20:35.099Z,2172
2017-08-08T10:21:44.059Z,2096
2017-08-08T10:22:53.022Z,2172
2017-08-08T10:24:01.984Z,1952
2017-08-08T10:25:11.273Z,1944
2017-08-08T10:26:20.228Z,2064
2017-08-08T10:27:29.198Z,1940
2017-08-08T10:28:38.481Z,1868
2017-08-08T10:29:47.456Z,1848
2017-08-08T10:30:57.009Z,1780
2017-08-08T10:32:06.944Z,1736
2017-08-08T10:33:17.265Z,1736
2017-08-08T10:34:28.080Z,1724
2017-08-08T10:35:40.790Z,1636
2017-08-08T10:36:54.535Z,1596
2017-08-08T10:38:07.326Z,1580
2017-08-08T10:39:21.115Z,1532
2017-08-08T10:40:33.848Z,1540
2017-08-08T10:41:46.338Z,1528
2017-08-08T10:42:59.145Z,1496
2017-08-08T10:44:12.029Z,1496
2017-08-08T10:45:24.144Z,1460
2017-08-08T10:46:36.835Z,1424
2017-08-08T10:47:50.396Z,1460
2017-08-08T10:49:03.583Z,1568
2017-08-08T10:50:17.151Z,1608
2017-08-08T10:51:29.198Z,1568
2017-08-08T10:52:41.357Z,1220
2017-08-08T10:53:54.420Z,1160
2017-08-08T10:55:07.597Z,1144
2017-08-08T10:56:20.615Z,1460
2017-08-08T10:57:32.380Z,1484
2017-08-08T10:58:43.299Z,1656
2017-08-08T10:59:56.515Z,1808
2017-08-08T11:01:08.569Z,1716
2017-08-08T11:02:20.521Z,1904
2017-08-08T11:03:34.105Z,2028
2017-08-08T11:04:45.901Z,2160
2017-08-08T11:05:59.128Z,2216
2017-08-08T11:07:10.978Z,2360
2017-08-08T11:08:22.592Z,2224
2017-08-08T11:09:35.680Z,2296
2017-08-08T11:10:47.048Z,2136
2017-08-08T11:11:58.362Z,2384
2017-08-08T11:13:11.288Z,2372
2017-08-08T11:14:23.958Z,2256
2017-08-08T11:15:36.436Z,2192
2017-08-08T11:16:49.601Z,2176
2017-08-08T11:18:02.815Z,2192
2017-08-08T11:19:13.578Z,2320
2017-08-08T11:20:25.666Z,2640
2017-08-08T11:21:38.363Z,2280
2017-08-08T11:22:50.822Z,2060
2017-08-08T11:24:04.744Z,2188
2017-08-08T11:25:18.219Z,2120
2017-08-08T11:26:30.834Z,2104
2017-08-08T11:27:42.728Z,2424
2017-08-08T11:28:53.433Z,2308
2017-08-08T11:30:06.203Z,2432
2017-08-08T11:31:18.262Z,2424
2017-08-08T11:32:31.001Z,2568
2017-08-08T11:33:43.381Z,2644
2017-08-08T11:34:56.072Z,2608
2017-08-08T11:36:09.029Z,2584
2017-08-08T11:37:21.554Z,2492
2017-08-08T11:38:34.963Z,2516
2017-08-08T11:39:47.247Z,2504
2017-08-08T11:41:00.760Z,2456
2017-08-08T11:42:14.299Z,2344
2017-08-08T11:43:26.465Z,2604
2017-08-08T11:44:38.847Z,2652
2017-08-08T11:45:48.782Z,2664
2017-08-08T11:46:58.436Z,2564
2017-08-08T11:48:07.802Z,2504
2017-08-08T11:49:17.629Z,2356
2017-08-08T11:50:27.072Z,2300
2017-08-08T11:51:37.253Z,2196
2017-08-08T11:52:46.838Z,2128
2017-08-08T11:53:57.349Z,2216
2017-08-08T11:55:06.932Z,2192
2017-08-08T11:56:16.915Z,2228
2017-08-08T11:57:26.382Z,2212
2017-08-08T11:58:35.693Z,2276
2017-08-08T11:59:45.322Z,2384
2017-08-08T12:00:54.852Z,2384
2017-08-08T12:02:04.423Z,2340
2017-08-08T12:03:13.878Z,2368
2017-08-08T12:04:23.520Z,2408
2017-08-08T12:05:33.192Z,2440
2017-08-08T12:06:42.594Z,2432
2017-08-08T12:07:55.012Z,2508
2017-08-08T12:09:05.474Z,2516
2017-08-08T12:10:15.092Z,2564
2017-08-08T12:11:24.608Z,2468
2017-08-08T12:12:33.634Z,2436
2017-08-08T12:13:42.631Z,2608
2017-08-08T12:14:51.630Z,2532
2017-08-08T12:16:00.608Z,2628
2017-08-08T12:17:09.593Z,2304
2017-08-08T12:18:18.571Z,2216
2017-08-08T12:19:27.564Z,1944
2017-08-08T12:20:36.585Z,1704
2017-08-08T12:21:45.566Z,1204
2017-08-08T12:22:54.548Z,1148
2017-08-08T12:24:03.552Z,1224
2017-08-08T12:25:12.553Z,1388
2017-08-08T12:26:21.534Z,1596
2017-08-08T12:27:30.522Z,1860
2017-08-08T12:28:39.517Z,1856
2017-08-08T12:29:48.516Z,1740
2017-08-08T12:30:57.499Z,1568
2017-08-08T12:32:06.487Z,1624
2017-08-08T12:33:15.474Z,1320
2017-08-08T12:34:24.456Z,1508
2017-08-08T12:35:33.444Z,1732
2017-08-08T12:36:42.430Z,1740
2017-08-08T12:37:51.420Z,1908
2017-08-08T12:39:00.416Z,2044
2017-08-08T12:40:09.396Z,2052
2017-08-08T12:41:18.382Z,1704
2017-08-08T12:42:27.368Z,1740
2017-08-08T12:43:36.352Z,1656
2017-08-08T12:44:45.334Z,1676
2017-08-08T12:45:54.314Z,1620
2017-08-08T12:47:03.309Z,1520
2017-08-08T12:48:12.306Z,1508
2017-08-08T12:49:21.298Z,1452
2017-08-08T12:50:30.273Z,1340
2017-08-08T12:51:39.251Z,1228
2017-08-08T12:52:48.240Z,1208
2017-08-08T12:53:57.233Z,1224
2017-08-08T12:55:06.256Z,1208
2017-08-08T12:56:15.255Z,1180
2017-08-08T12:57:24.232Z,1212
2017-08-08T12:58:33.222Z,1096
2017-08-08T12:59:42.206Z,1204
2017-08-08T13:00:51.193Z,1104
2017-08-08T13:02:00.181Z,964
2017-08-08T13:03:09.165Z,1252
2017-08-08T13:04:18.161Z,1356
2017-08-08T13:05:27.146Z,1212
2017-08-08T13:06:36.127Z,1200
2017-08-08T13:07:45.117Z,1200
2017-08-08T13:08:54.102Z,1052
2017-08-08T13:10:03.087Z,1192
2017-08-08T13:11:12.079Z,1176
2017-08-08T13:12:21.071Z,1196
2017-08-08T13:13:30.066Z,1228
2017-08-08T13:14:39.054Z,1204
2017-08-08T13:15:48.052Z,1096
2017-08-08T13:16:57.039Z,1160
2017-08-08T13:18:06.016Z,1144
2017-08-08T13:19:15.007Z,1156
2017-08-08T13:20:24.006Z,1344
2017-08-08T13:21:32.996Z,1304
2017-08-08T13:22:41.989Z,1244
2017-08-08T13:23:50.979Z,1240
2017-08-08T13:24:59.960Z,1212
2017-08-08T13:26:08.958Z,1188
2017-08-08T13:27:17.943Z,1204
2017-08-08T13:28:26.925Z,1244
2017-08-08T13:29:35.920Z,1244
2017-08-08T13:30:44.901Z,1184
2017-08-08T13:31:53.886Z,1188
2017-08-08T13:33:02.873Z,1108
2017-08-08T13:34:11.867Z,1040
2017-08-08T13:35:20.846Z,1056
2017-08-08T13:36:30.162Z,1140
2017-08-08T13:37:39.139Z,1180
2017-08-08T13:38:48.129Z,1208
2017-08-08T13:39:57.360Z,1260
2017-08-08T13:41:06.317Z,1204
2017-08-08T13:42:15.290Z,1220
2017-08-08T13:43:24.252Z,1216
2017-08-08T13:44:33.221Z,1136
2017-08-08T13:45:42.227Z,1132
2017-08-08T13:46:51.189Z,1160
2017-08-08T13:48:00.162Z,1148
2017-08-08T13:49:09.147Z,1156
2017-08-08T13:50:18.374Z,1196
2017-08-08T13:51:27.597Z,1172
2017-08-08T13:52:36.596Z,1148
2017-08-08T13:53:45.725Z,1100
2017-08-08T13:54:54.988Z,1148
2017-08-08T13:56:04.033Z,1112
2017-08-08T13:57:13.079Z,1128
2017-08-08T13:58:22.562Z,1128
2017-08-08T13:59:31.697Z,1160
2017-08-08T14:00:40.689Z,1132
2017-08-08T14:01:49.793Z,1116
2017-08-08T14:02:58.941Z,1136
2017-08-08T14:04:08.055Z,1104
2017-08-08T14:05:17.043Z,1112
2017-08-08T14:06:26.337Z,1128
2017-08-08T14:07:35.353Z,1116
2017-08-08T14:08:44.310Z,1120
2017-08-08T14:09:53.352Z,1096
2017-08-08T14:11:02.386Z,1104
2017-08-08T14:12:11.357Z,1144
2017-08-08T14:13:20.318Z,1120
2017-08-08T14:14:29.284Z,1108
2017-08-08T14:15:38.246Z,1088
2017-08-08T14:16:47.222Z,1076
2017-08-08T14:17:56.196Z,1092
2017-08-08T14:19:05.161Z,1092
2017-08-08T14:20:14.146Z,1076
2017-08-08T14:21:23.108Z,1080
2017-08-08T14:22:32.078Z,1080
2017-08-08T14:23:41.054Z,1068
2017-08-08T14:24:50.032Z,1068
2017-08-08T14:25:59.013Z,1088
2017-08-08T14:27:08.003Z,1008
2017-08-08T14:28:17.041Z,808
2017-08-08T14:29:26.121Z,720
2017-08-08T14:30:35.144Z,700
2017-08-08T14:31:44.149Z,792
2017-08-08T14:32:53.160Z,700
2017-08-08T14:34:02.193Z,1224
2017-08-08T14:35:11.202Z,1284
2017-08-08T14:36:20.220Z,1248
2017-08-08T14:37:29.237Z,1208
2017-08-08T14:38:38.246Z,1200
2017-08-08T14:39:47.234Z,1264
2017-08-08T14:40:56.248Z,1412
2017-08-08T14:42:05.232Z,1248
2017-08-08T14:43:14.259Z,1272
2017-08-08T14:44:23.252Z,1096
2017-08-08T14:45:32.552Z,1180
2017-08-08T14:46:41.549Z,1416
2017-08-08T14:47:50.539Z,1400
2017-08-08T14:48:59.503Z,1364
2017-08-08T14:50:08.455Z,1212
2017-08-08T14:51:17.406Z,1132
2017-08-08T14:52:26.660Z,1372
2017-08-08T14:53:35.819Z,1580
2017-08-08T14:54:44.900Z,1656
2017-08-08T14:55:54.081Z,2008
2017-08-08T14:57:03.307Z,2032
2017-08-08T14:58:12.380Z,2112
2017-08-08T14:59:21.616Z,1924
2017-08-08T15:00:30.652Z,1868
2017-08-08T15:01:39.618Z,1500
2017-08-08T15:02:48.778Z,1296
2017-08-08T15:03:58.823Z,1124
2017-08-08T15:05:08.284Z,864
2017-08-08T15:06:17.271Z,792
2017-08-08T15:07:26.555Z,800
2017-08-08T15:08:35.517Z,760
2017-08-08T15:09:44.477Z,908
2017-08-08T15:10:53.453Z,968
2017-08-08T15:12:02.421Z,992
2017-08-08T15:13:11.701Z,1108
2017-08-08T15:14:20.671Z,1132
2017-08-08T15:15:29.636Z,1020
2017-08-08T15:16:38.683Z,976
2017-08-08T15:17:47.826Z,928
2017-08-08T15:18:56.904Z,908
2017-08-08T15:20:06.022Z,848
2017-08-08T15:21:15.575Z,924
2017-08-08T15:22:24.670Z,716
2017-08-08T15:23:33.779Z,416
2017-08-08T15:24:42.781Z,408
2017-08-08T15:25:51.853Z,432
2017-08-08T15:27:01.195Z,820
2017-08-08T15:28:10.340Z,848
2017-08-08T15:29:19.323Z,816
2017-08-08T15:30:28.352Z,788
2017-08-08T15:31:37.344Z,796
2017-08-08T15:32:46.422Z,888
2017-08-08T15:33:55.514Z,860
2017-08-08T15:35:04.601Z,776
2017-08-08T15:36:13.641Z,828
2017-08-08T15:37:22.641Z,996
2017-08-08T15:38:31.696Z,960
2017-08-08T15:39:40.780Z,896
2017-08-08T15:40:49.809Z,920
2017-08-08T15:41:58.845Z,904
2017-08-08T15:43:07.816Z,940
2017-08-08T15:44:16.791Z,892
2017-08-08T15:45:25.917Z,892
2017-08-08T15:46:35.071Z,756
2017-08-08T15:47:44.069Z,648
2017-08-08T15:48:53.236Z,652
2017-08-08T15:50:02.207Z,700
2017-08-08T15:51:11.342Z,780
2017-08-08T15:52:20.358Z,764